Time;durP1;ratioP1;P1;durP2;ratioP2;P2;SDS_P1;SDS_P2;PMS_P1;PMS_P2;Temp;Humidity;BMP_temperature;BMP_pressure;BME280_temperature;BME280_humidity;BME280_pressure;Samples;Min_cycle;Max_cycle;Signal;HPM_P1;HPM_P2
2023/07/24 00:01:34;;;;;;;12.37;7.60;;;;;;;18.15;100.00;150612.75;5001597;28;20228;-65
2023/07/24 00:04:01;;;;;;;14.37;7.97;;;;;;;18.20;100.00;150624.00;5005472;28;20232;-65
2023/07/24 00:06:27;;;;;;;12.37;7.87;;;;;;;18.26;100.00;150640.28;5001140;28;20226;-65
2023/07/24 00:08:55;;;;;;;12.67;8.37;;;;;;;18.23;100.00;150631.50;5007357;28;20633;-65
2023/07/24 00:11:22;;;;;;;12.27;8.30;;;;;;;18.25;100.00;150637.78;5004004;28;20307;-65
2023/07/24 00:13:48;;;;;;;13.50;7.93;;;;;;;18.25;100.00;150637.78;5004836;28;20333;-65
2023/07/24 00:16:15;;;;;;;13.90;8.20;;;;;;;18.31;100.00;150650.31;5003500;28;21023;-65
2023/07/24 00:18:42;;;;;;;13.00;7.63;;;;;;;18.28;100.00;150644.03;5002555;28;20675;-65
2023/07/24 00:21:08;;;;;;;13.30;7.70;;;;;;;18.28;100.00;150644.03;5004574;28;20315;-65
2023/07/24 00:23:35;;;;;;;13.83;8.40;;;;;;;18.35;100.00;150660.31;4999369;28;20222;-65
2023/07/24 00:26:03;;;;;;;10.67;7.07;;;;;;;18.42;100.00;150677.84;5004067;28;20232;-65
2023/07/24 00:28:29;;;;;;;12.37;7.70;;;;;;;18.43;100.00;150680.34;4998766;28;20638;-65
2023/07/24 00:30:56;;;;;;;11.07;7.60;;;;;;;18.37;100.00;150666.56;5004308;28;20703;-65
2023/07/24 00:33:23;;;;;;;12.77;8.33;;;;;;;18.30;100.00;150649.03;5002230;28;20316;-66
2023/07/24 00:35:49;;;;;;;12.73;7.80;;;;;;;18.33;100.00;150655.31;5004782;28;20262;-65
2023/07/24 00:38:16;;;;;;;11.43;6.93;;;;;;;18.27;100.00;150641.50;5003262;28;20224;-65
2023/07/24 00:40:43;;;;;;;11.47;7.40;;;;;;;18.25;100.00;150636.50;5000408;28;20696;-65
2023/07/24 00:43:10;;;;;;;12.63;8.20;;;;;;;18.21;100.00;150626.50;5003581;28;20723;-65
2023/07/24 00:45:37;;;;;;;13.63;7.57;;;;;;;18.19;100.00;150621.50;5015813;28;20225;-65
2023/07/24 00:48:04;;;;;;;9.53;6.73;;;;;;;18.22;100.00;150629.00;5000667;28;20630;-65
2023/07/24 00:50:31;;;;;;;15.77;8.43;;;;;;;18.35;99.08;150661.53;5001040;28;20223;-65
2023/07/24 00:52:58;;;;;;;13.87;7.43;;;;;;;18.31;100.00;150650.31;5002566;28;20249;-65
2023/07/24 00:55:25;;;;;;;13.83;7.80;;;;;;;18.31;97.50;150651.53;4997280;28;20224;-65
2023/07/24 00:57:52;;;;;;;12.37;7.13;;;;;;;18.26;100.00;150640.28;5002422;28;20686;-65
2023/07/24 01:00:20;;;;;;;12.67;7.30;;;;;;;18.19;100.00;150621.50;5003844;28;20701;-65
2023/07/24 01:02:48;;;;;;;13.57;7.87;;;;;;;18.06;100.00;150591.47;5015683;28;20327;-65
2023/07/24 01:05:15;;;;;;;13.03;8.03;;;;;;;17.98;100.00;150572.66;5003131;28;20231;-65
2023/07/24 01:07:42;;;;;;;11.47;7.17;;;;;;;18.03;100.00;150583.94;4999290;28;21607;-65
2023/07/24 01:10:10;;;;;;;13.10;7.87;;;;;;;18.05;100.00;150587.72;5002658;28;20239;-65
2023/07/24 01:12:44;;;;;;;11.27;7.57;;;;;;;18.05;100.00;150588.97;4999868;28;20216;-65
2023/07/24 01:15:15;;;;;;;15.53;7.83;;;;;;;17.93;100.00;150558.94;5002762;28;20231;-65
2023/07/24 01:17:49;;;;;;;13.67;8.20;;;;;;;17.97;100.00;150570.16;4998556;28;20879;-65
2023/07/24 01:20:18;;;;;;;11.83;8.07;;;;;;;18.00;100.00;150577.72;5017368;28;20256;-65
2023/07/24 01:23:04;;;;;;;11.30;7.10;;;;;;;18.03;100.00;150583.94;5002236;28;20239;-65
2023/07/24 01:25:35;;;;;;;14.10;8.87;;;;;;;18.11;100.00;150603.97;4999485;28;20608;-65
2023/07/24 01:28:07;;;;;;;13.37;7.73;;;;;;;18.06;100.00;150591.47;5004837;28;20923;-65
2023/07/24 01:30:34;;;;;;;12.53;8.03;;;;;;;17.98;100.00;150571.44;4999480;28;20844;-65
2023/07/24 01:33:01;;;;;;;12.83;7.40;;;;;;;17.96;100.00;150566.44;5003155;28;20267;-65
2023/07/24 01:35:29;;;;;;;11.47;7.70;;;;;;;17.89;100.00;150550.16;4999894;28;20282;-65
2023/07/24 01:37:57;;;;;;;12.73;7.33;;;;;;;17.79;100.00;150526.41;5017389;28;20224;-65
2023/07/24 01:40:25;;;;;;;12.63;7.73;;;;;;;17.76;100.00;150518.88;5003861;28;20220;-65
2023/07/24 01:42:51;;;;;;;13.40;7.43;;;;;;;17.72;100.00;150508.88;5003161;28;20231;-65
2023/07/24 01:45:19;;;;;;;11.73;7.47;;;;;;;17.68;100.00;150498.88;5003149;28;20239;-65
2023/07/24 01:47:47;;;;;;;14.53;8.10;;;;;;;17.59;100.00;150476.34;5003538;28;20263;-65
2023/07/24 01:50:13;;;;;;;14.10;7.87;;;;;;;17.55;100.00;150467.56;5002184;28;20252;-65
2023/07/24 01:52:40;;;;;;;11.60;7.50;;;;;;;17.57;100.00;150472.56;5000018;28;20231;-65
2023/07/24 01:55:08;;;;;;;10.73;7.57;;;;;;;17.53;100.00;150462.56;5002104;28;20223;-65
2023/07/24 01:57:35;;;;;;;13.80;7.50;;;;;;;17.58;100.00;150473.84;4997699;28;20308;-65
2023/07/24 02:00:02;;;;;;;12.67;7.60;;;;;;;17.61;100.00;150481.34;5005466;28;20244;-65
2023/07/24 02:02:29;;;;;;;12.73;7.30;;;;;;;17.68;100.00;150498.88;5000465;28;20568;-65
2023/07/24 02:04:56;;;;;;;14.87;7.33;;;;;;;17.67;100.00;150497.59;5004283;28;20905;-66
2023/07/24 02:07:23;;;;;;;14.60;8.33;;;;;;;17.66;100.00;150495.09;4999633;28;21041;-65
2023/07/24 02:09:50;;;;;;;13.03;7.60;;;;;;;17.70;100.00;150505.09;5001886;28;20603;-65
2023/07/24 02:12:17;;;;;;;10.27;7.00;;;;;;;17.76;100.00;150517.63;5011711;28;20243;-65
2023/07/24 02:14:43;;;;;;;12.47;7.30;;;;;;;17.78;100.00;150522.63;4997799;28;20759;-66
2023/07/24 02:17:11;;;;;;;9.87;7.10;;;;;;;17.75;100.00;150516.38;4992687;28;20227;-65
2023/07/24 02:19:39;;;;;;;12.73;7.30;;;;;;;17.70;100.00;150505.09;5001519;28;20233;-65
2023/07/24 02:22:06;;;;;;;13.77;7.17;;;;;;;17.69;100.00;150501.38;5000826;28;20239;-65
2023/07/24 02:24:35;;;;;;;13.03;7.10;;;;;;;17.68;100.00;150498.88;5000809;28;20264;-65
2023/07/24 02:27:02;;;;;;;13.33;7.17;;;;;;;17.68;100.00;150498.88;5004168;28;20732;-65
2023/07/24 02:29:31;;;;;;;11.63;7.37;;;;;;;17.72;100.00;150508.88;4999512;28;20740;-66
2023/07/24 02:31:58;;;;;;;10.73;6.90;;;;;;;17.82;100.00;150532.63;5005310;28;20806;-65
2023/07/24 02:34:26;;;;;;;10.10;6.90;;;;;;;17.84;100.00;150537.63;4999408;28;20722;-65
2023/07/24 02:36:56;;;;;;;12.53;6.87;;;;;;;17.83;100.00;150535.13;5002977;28;20238;-65
2023/07/24 02:39:22;;;;;;;14.50;7.20;;;;;;;17.81;100.00;150531.41;5000383;28;20307;-65
2023/07/24 02:41:54;;;;;;;10.43;6.67;;;;;;;17.82;100.00;150533.91;4997185;28;20234;-65
2023/07/24 02:44:21;;;;;;;11.87;7.10;;;;;;;17.76;100.00;150518.88;5000926;28;20225;-65
2023/07/24 02:47:01;;;;;;;11.90;7.47;;;;;;;17.71;100.00;150507.59;4977659;28;20247;-66
2023/07/24 02:49:31;;;;;;;12.23;7.40;;;;;;;17.65;100.00;150492.59;4972965;28;20227;-67
2023/07/24 02:52:03;;;;;;;12.37;7.57;;;;;;;17.62;100.00;150485.09;4980380;28;20225;-65
2023/07/24 02:54:35;;;;;;;10.60;6.80;;;;;;;17.58;100.00;150473.84;4967303;28;20219;-66
2023/07/24 02:57:03;;;;;;;13.97;6.90;;;;;;;17.51;100.00;150458.84;4998021;28;20245;-66
2023/07/24 02:59:31;;;;;;;12.43;7.37;;;;;;;17.49;100.00;150452.59;4919326;28;20287;-66
2023/07/24 03:04:39;;;;;;;13.90;7.70;;;;;;;17.35;100.00;150418.81;5291018;23;20723;-65
2023/07/24 03:07:07;;;;;;;17.73;8.00;;;;;;;17.33;100.00;150413.81;5003299;28;20220;-65
2023/07/24 03:09:39;;;;;;;11.63;7.00;;;;;;;17.32;100.00;150412.56;4994396;28;22455;-65
2023/07/24 03:12:08;;;;;;;11.40;7.17;;;;;;;17.28;100.00;150402.56;5006041;28;20300;-66
2023/07/24 03:14:38;;;;;;;13.93;7.67;;;;;;;17.25;100.00;150396.28;4966886;28;20236;-66
2023/07/24 03:17:11;;;;;;;12.30;6.90;;;;;;;17.22;100.00;150387.56;4988784;28;20227;-66
2023/07/24 03:19:38;;;;;;;11.37;7.47;;;;;;;17.23;100.00;150391.28;4963553;28;20354;-65
2023/07/24 03:22:12;;;;;;;14.03;7.20;;;;;;;17.24;100.00;150392.56;4935543;28;20244;-66
2023/07/24 03:24:39;;;;;;;10.57;6.70;;;;;;;17.23;100.00;150391.28;4936974;28;20618;-66
2023/07/24 03:27:05;;;;;;;11.37;6.90;;;;;;;17.26;100.00;150397.56;4999317;28;20219;-65
2023/07/24 03:29:32;;;;;;;12.20;7.30;;;;;;;17.30;100.00;150406.31;4992532;28;20231;-65
2023/07/24 03:31:59;;;;;;;12.27;7.40;;;;;;;17.37;100.00;150423.81;5201243;23;20285;-65
2023/07/24 03:34:26;;;;;;;11.07;7.03;;;;;;;17.45;100.00;150443.81;5008349;28;20214;-65
2023/07/24 03:36:54;;;;;;;17.03;6.80;;;;;;;17.46;100.00;150446.31;5025977;28;20255;-65
2023/07/24 03:39:22;;;;;;;12.90;7.23;;;;;;;17.46;100.00;150445.09;5025056;28;21045;-65
2023/07/24 03:41:54;;;;;;;12.73;6.87;;;;;;;17.47;100.00;150447.59;4995283;28;20264;-65
2023/07/24 03:44:20;;;;;;;12.47;6.93;;;;;;;17.45;100.00;150443.81;4989199;28;20231;-65
2023/07/24 03:46:51;;;;;;;11.27;6.47;;;;;;;17.48;100.00;150450.09;4985729;28;20278;-65
2023/07/24 03:49:17;;;;;;;14.20;7.00;;;;;;;17.51;100.00;150457.56;4991116;28;20788;-65
2023/07/24 03:51:44;;;;;;;11.23;7.33;;;;;;;17.55;100.00;150467.56;4989190;28;20862;-64
2023/07/24 03:54:10;;;;;;;9.93;6.90;;;;;;;17.59;100.00;150477.56;4988318;28;20227;-64
2023/07/24 03:56:38;;;;;;;16.03;7.07;;;;;;;17.55;100.00;150467.56;4987639;28;20228;-64
2023/07/24 03:59:06;;;;;;;12.27;6.50;;;;;;;17.53;100.00;150463.84;4990602;28;20219;-64
2023/07/24 04:01:33;;;;;;;12.00;7.10;;;;;;;17.56;100.00;150471.34;4984089;28;20247;-64
2023/07/24 04:04:00;;;;;;;10.77;6.60;;;;;;;17.59;100.00;150476.34;4986714;28;20646;-65
2023/07/24 04:06:26;;;;;;;13.23;7.63;;;;;;;17.65;100.00;150491.38;4986614;28;20228;-65
2023/07/24 04:08:53;;;;;;;10.60;7.20;;;;;;;17.75;100.00;150516.38;4990032;28;20231;-65
2023/07/24 04:11:19;;;;;;;10.40;6.70;;;;;;;17.86;100.00;150542.63;4991062;28;20229;-65
2023/07/24 04:13:47;;;;;;;11.53;6.33;;;;;;;17.90;100.00;150551.41;4987075;28;20281;-65
2023/07/24 04:16:14;;;;;;;12.17;6.53;;;;;;;17.93;100.00;150558.94;4990185;28;20363;-64
2023/07/24 04:18:40;;;;;;;10.93;7.30;;;;;;;18.12;99.83;150605.25;4987637;28;20227;-64
2023/07/24 04:21:07;;;;;;;11.67;7.03;;;;;;;18.11;100.00;150602.75;4991089;28;20235;-64
2023/07/24 04:23:33;;;;;;;11.17;6.87;;;;;;;18.10;100.00;150601.47;4987193;28;20290;-65
2023/07/24 04:26:00;;;;;;;13.83;7.50;;;;;;;18.10;100.00;150600.25;4990158;28;20252;-65
2023/07/24 04:28:26;;;;;;;11.40;7.23;;;;;;;18.13;100.00;150607.75;4984331;28;20307;-65
2023/07/24 04:30:54;;;;;;;11.73;7.00;;;;;;;18.13;100.00;150607.75;4990014;28;20226;-65
2023/07/24 04:33:21;;;;;;;11.10;6.23;;;;;;;18.10;100.00;150600.25;4991185;28;20229;-65
2023/07/24 04:35:48;;;;;;;10.63;6.30;;;;;;;18.09;100.00;150597.75;5002676;28;20290;-65
2023/07/24 04:38:15;;;;;;;9.73;6.57;;;;;;;18.10;100.00;150601.47;4988873;28;20235;-65
2023/07/24 04:40:44;;;;;;;9.10;6.07;;;;;;;18.10;100.00;150601.47;4987562;28;20225;-65
2023/07/24 04:43:11;;;;;;;14.97;7.03;;;;;;;18.11;100.00;150602.75;4992100;28;20228;-65
2023/07/24 04:45:37;;;;;;;9.20;6.37;;;;;;;18.17;100.00;150616.50;4991495;28;20643;-65
2023/07/24 04:48:06;;;;;;;8.20;6.13;;;;;;;18.15;100.00;150612.75;4992970;28;20247;-65
2023/07/24 04:50:33;;;;;;;10.13;6.70;;;;;;;18.17;100.00;150616.50;4990778;28;20235;-65
2023/07/24 04:53:00;;;;;;;10.13;6.63;;;;;;;18.19;100.00;150621.50;4994036;28;20615;-65
2023/07/24 04:55:26;;;;;;;9.13;6.60;;;;;;;18.25;100.00;150636.50;4989962;28;20634;-65
2023/07/24 04:57:53;;;;;;;10.10;6.50;;;;;;;18.27;100.00;150641.50;4992445;28;20238;-65
2023/07/24 05:00:19;;;;;;;9.27;6.60;;;;;;;18.34;100.00;150657.81;4989109;28;20239;-64
2023/07/24 05:02:46;;;;;;;9.90;6.53;;;;;;;18.37;100.00;150666.56;4987961;28;20708;-64
2023/07/24 05:05:14;;;;;;;11.27;6.43;;;;;;;18.42;100.00;150679.06;4992089;28;20217;-64
2023/07/24 05:07:41;;;;;;;10.40;6.13;;;;;;;18.48;100.00;150692.84;4987845;28;20230;-65
2023/07/24 05:10:08;;;;;;;10.37;7.00;;;;;;;18.52;100.00;150701.59;4992520;28;20721;-65
2023/07/24 05:12:34;;;;;;;10.07;6.10;;;;;;;18.59;100.00;150720.34;4991137;28;20236;-65
2023/07/24 05:15:02;;;;;;;8.53;6.60;;;;;;;18.72;99.03;150751.66;4993305;28;20254;-65
2023/07/24 05:17:28;;;;;;;9.67;6.33;;;;;;;18.84;98.60;150780.44;4985787;28;20230;-65
2023/07/24 05:19:55;;;;;;;10.57;6.20;;;;;;;18.88;99.05;150790.44;4991949;28;20998;-65
2023/07/24 05:22:23;;;;;;;11.33;6.77;;;;;;;19.05;92.67;150830.56;4990099;28;20289;-65
2023/07/24 05:24:49;;;;;;;10.23;6.47;;;;;;;19.16;91.63;150856.84;4989595;28;20712;-65
2023/07/24 05:27:16;;;;;;;10.13;6.73;;;;;;;19.25;92.36;150879.38;4991452;28;20730;-65
2023/07/24 05:29:43;;;;;;;12.60;6.83;;;;;;;19.36;92.93;150904.41;4987936;28;20294;-65
2023/07/24 05:32:09;;;;;;;8.83;6.07;;;;;;;19.47;91.61;150931.97;4991877;28;20232;-65
2023/07/24 05:34:36;;;;;;;11.40;7.47;;;;;;;19.62;90.64;150968.25;4990893;28;20233;-65
2023/07/24 05:37:03;;;;;;;9.10;6.30;;;;;;;19.53;91.62;150945.78;4992739;28;20228;-64
2023/07/24 05:39:31;;;;;;;18.47;7.17;;;;;;;19.44;92.57;150924.47;4988137;28;20239;-64
2023/07/24 05:41:58;;;;;;;12.13;7.47;;;;;;;19.47;92.92;150931.97;4991965;28;20237;-64
2023/07/24 05:44:24;;;;;;;13.77;7.30;;;;;;;19.44;92.05;150924.47;4985892;28;20763;-65
2023/07/24 05:46:54;;;;;;;10.90;7.37;;;;;;;19.30;94.19;150890.66;4993337;28;20249;-65
2023/07/24 05:49:20;;;;;;;13.10;7.50;;;;;;;19.23;94.03;150874.38;4994315;28;20228;-65
2023/07/24 05:51:52;;;;;;;13.23;8.10;;;;;;;19.25;95.13;150879.38;4986427;28;20240;-65
2023/07/24 05:54:18;;;;;;;11.47;7.50;;;;;;;19.26;95.96;150881.88;4991220;28;20267;-65
2023/07/24 05:56:46;;;;;;;15.30;7.23;;;;;;;19.32;97.16;150896.91;4988540;28;20239;-65
2023/07/24 05:59:13;;;;;;;13.40;8.23;;;;;;;19.24;96.50;150876.88;4991800;28;20224;-65
2023/07/24 06:01:39;;;;;;;11.97;7.60;;;;;;;19.33;97.33;150898.19;4987764;28;20746;-65
2023/07/24 06:04:07;;;;;;;15.20;8.27;;;;;;;19.35;96.58;150901.91;4991335;28;20234;-65
2023/07/24 06:06:34;;;;;;;14.50;7.50;;;;;;;19.37;96.96;150908.19;4988738;28;20228;-65
2023/07/24 06:09:00;;;;;;;13.43;7.90;;;;;;;19.36;97.68;150905.69;4991557;28;20230;-65
2023/07/24 06:11:27;;;;;;;12.90;7.30;;;;;;;19.35;99.22;150903.19;4986914;28;20247;-65
2023/07/24 06:13:55;;;;;;;13.50;7.80;;;;;;;19.40;99.69;150914.44;4990754;28;20239;-65
2023/07/24 06:16:21;;;;;;;12.20;7.57;;;;;;;19.45;98.33;150926.97;4990527;28;20225;-65
2023/07/24 06:18:48;;;;;;;12.97;7.63;;;;;;;19.44;98.94;150924.47;4990195;28;20230;-65
2023/07/24 06:21:14;;;;;;;11.90;7.10;;;;;;;19.57;98.78;150957.03;4986924;28;20314;-65
2023/07/24 06:23:41;;;;;;;14.67;7.87;;;;;;;19.76;99.00;151002.09;4977320;28;20288;-65
2023/07/24 06:26:08;;;;;;;11.20;7.33;;;;;;;19.92;99.34;151040.97;4988505;28;20323;-65
2023/07/24 06:28:34;;;;;;;11.27;7.63;;;;;;;20.12;97.03;151089.84;4984912;28;20241;-65
2023/07/24 06:31:02;;;;;;;15.60;8.13;;;;;;;20.35;95.61;151144.94;4988679;28;20240;-65
2023/07/24 06:33:29;;;;;;;11.23;7.00;;;;;;;20.57;93.91;151197.56;4986729;28;20590;-65
2023/07/24 06:35:55;;;;;;;11.27;7.33;;;;;;;20.76;94.71;151245.19;4987503;28;20733;-66
2023/07/24 06:38:22;;;;;;;17.20;8.70;;;;;;;20.96;90.40;151292.84;4987370;28;20779;-65
2023/07/24 06:40:49;;;;;;;13.80;7.27;;;;;;;21.15;89.60;151337.97;4988450;28;20241;-65
2023/07/24 06:43:15;;;;;;;16.23;7.87;;;;;;;21.45;84.92;151411.91;4995944;28;20238;-65
2023/07/24 06:45:42;;;;;;;14.30;7.43;;;;;;;21.77;81.13;151488.44;4988020;28;21818;-65
2023/07/24 06:48:10;;;;;;;13.87;7.30;;;;;;;21.90;71.52;151519.75;5012737;28;20222;-66
2023/07/24 06:50:36;;;;;;;10.40;6.63;;;;;;;21.84;71.95;151506.00;4986607;28;20725;-65
2023/07/24 06:53:03;;;;;;;8.97;6.20;;;;;;;21.89;71.39;151518.53;4988521;28;20225;-65
2023/07/24 06:55:29;;;;;;;12.80;6.27;;;;;;;21.71;75.46;151473.38;4986388;28;20235;-65
2023/07/24 06:57:56;;;;;;;12.37;6.43;;;;;;;21.56;76.46;151438.22;4990094;28;20235;-66
2023/07/24 07:00:23;;;;;;;10.80;6.57;;;;;;;21.44;80.74;151408.13;4987843;28;20225;-66
2023/07/24 07:02:49;;;;;;;10.87;6.40;;;;;;;21.22;81.07;151355.47;4986871;28;20874;-65
2023/07/24 07:05:17;;;;;;;12.23;6.77;;;;;;;21.06;83.53;151317.94;4987800;28;20802;-65
2023/07/24 07:07:44;;;;;;;12.90;6.67;;;;;;;20.94;84.60;151287.84;4985972;28;20232;-65
2023/07/24 07:10:11;;;;;;;15.13;7.30;;;;;;;20.82;85.96;151257.75;4989807;28;20222;-65
2023/07/24 07:12:37;;;;;;;11.73;6.70;;;;;;;20.76;85.30;151243.91;4986450;28;20224;-65
2023/07/24 07:15:05;;;;;;;11.70;7.17;;;;;;;20.76;84.95;151243.91;4986096;28;20232;-65
2023/07/24 07:17:31;;;;;;;11.47;7.20;;;;;;;20.67;88.38;151222.63;4984830;28;20226;-65
2023/07/24 07:19:58;;;;;;;10.47;6.80;;;;;;;20.55;89.50;151193.81;5002778;28;20257;-65
2023/07/24 07:22:26;;;;;;;13.27;6.67;;;;;;;20.47;88.96;151175.00;4986359;28;20235;-65
2023/07/24 07:24:52;;;;;;;14.23;7.13;;;;;;;20.41;90.78;151158.72;4990094;28;20256;-65
2023/07/24 07:27:19;;;;;;;12.87;7.83;;;;;;;20.32;91.74;151138.69;4991106;28;20585;-65
2023/07/24 07:29:45;;;;;;;12.30;6.77;;;;;;;20.19;94.25;151107.34;4986445;28;20730;-65
2023/07/24 07:32:12;;;;;;;11.57;6.73;;;;;;;20.03;96.30;151068.53;4988279;28;20239;-65
2023/07/24 07:34:39;;;;;;;8.90;6.90;;;;;;;20.02;93.99;151064.78;4984753;28;20753;-66
2023/07/24 07:37:06;;;;;;;14.17;6.47;;;;;;;19.95;95.47;151047.25;4989509;28;20889;-65
2023/07/24 07:39:34;;;;;;;13.97;7.47;;;;;;;19.88;96.52;151032.16;4986801;28;20237;-65
2023/07/24 07:42:00;;;;;;;11.13;7.10;;;;;;;19.83;98.12;151019.66;4990633;28;20247;-65
2023/07/24 07:44:27;;;;;;;14.40;7.37;;;;;;;19.81;98.79;151013.38;4984876;28;20226;-65
2023/07/24 07:46:54;;;;;;;11.10;6.90;;;;;;;19.87;98.99;151029.66;4987019;28;20326;-65
2023/07/24 07:49:20;;;;;;;11.20;6.87;;;;;;;19.84;98.46;151020.88;4989855;28;20232;-65
2023/07/24 07:52:16;;;;;;;11.57;7.20;;;;;;;19.80;98.27;151012.13;4987047;28;20277;-65
2023/07/24 07:54:47;;;;;;;10.77;6.60;;;;;;;19.87;98.31;151029.66;4983957;28;20326;-65
2023/07/24 07:57:14;;;;;;;13.33;7.27;;;;;;;20.14;98.54;151094.81;4987514;28;20225;-65
2023/07/24 07:59:41;;;;;;;11.50;6.53;;;;;;;20.27;97.60;151126.16;4982642;28;20270;-65
2023/07/24 08:02:08;;;;;;;10.43;6.43;;;;;;;20.43;95.62;151164.97;4988921;28;20239;-65
2023/07/24 08:04:34;;;;;;;12.73;6.33;;;;;;;20.62;94.14;151211.38;4984817;28;20230;-65
2023/07/24 08:07:01;;;;;;;9.40;6.33;;;;;;;20.84;93.90;151262.78;4987707;28;20720;-65
2023/07/24 08:09:28;;;;;;;11.47;6.47;;;;;;;20.91;94.97;151280.31;4987521;28;20248;-65
2023/07/24 08:11:58;;;;;;;10.43;6.47;;;;;;;21.11;93.54;151327.94;4990730;28;20240;-65
2023/07/24 08:14:25;;;;;;;11.30;6.57;;;;;;;21.23;99.51;151358.00;4987544;28;20236;-65
2023/07/24 08:16:54;;;;;;;11.87;6.60;;;;;;;21.46;97.95;151413.16;5014891;28;20240;-65
2023/07/24 08:19:21;;;;;;;9.87;6.53;;;;;;;21.80;97.16;151495.97;4993899;28;20238;-65
2023/07/24 08:22:12;;;;;;;9.83;6.40;;;;;;;22.30;95.77;151616.31;4988709;28;20247;-65
2023/07/24 08:24:39;;;;;;;9.67;6.77;;;;;;;22.59;93.58;151686.59;4988880;28;20226;-66
2023/07/24 08:27:07;;;;;;;9.97;6.03;;;;;;;22.84;90.26;151749.34;4990637;28;20232;-65
2023/07/24 08:29:35;;;;;;;9.07;6.40;;;;;;;22.81;83.04;151741.81;4989411;28;20775;-65
2023/07/24 08:32:02;;;;;;;9.87;6.37;;;;;;;22.62;80.12;151694.13;4992640;28;20242;-65
2023/07/24 08:34:29;;;;;;;9.13;5.90;;;;;;;23.14;79.85;151822.09;4988614;28;20225;-66
2023/07/24 08:36:56;;;;;;;9.63;5.63;;;;;;;23.51;76.95;151909.97;4992934;28;20231;-66
2023/07/24 08:39:22;;;;;;;8.83;6.03;;;;;;;23.87;79.27;151997.81;4994263;28;20281;-66
2023/07/24 08:41:54;;;;;;;8.53;5.93;;;;;;;24.03;73.32;152036.78;4987527;28;20236;-65
2023/07/24 08:44:24;;;;;;;7.63;5.03;;;;;;;24.19;69.66;152075.72;4990747;28;20263;-72
2023/07/24 08:46:54;;;;;;;11.07;6.27;;;;;;;24.01;71.09;152033.03;4985234;28;20236;-66
2023/07/24 08:49:21;;;;;;;8.30;5.87;;;;;;;24.32;77.06;152107.06;4994175;28;20248;-66
2023/07/24 08:52:13;;;;;;;8.77;6.20;;;;;;;24.64;77.99;152183.66;4990116;28;20241;-66
2023/07/24 08:54:39;;;;;;;8.73;5.83;;;;;;;24.99;74.80;152270.34;4988844;28;20325;-66
2023/07/24 08:57:08;;;;;;;8.63;6.20;;;;;;;25.00;74.88;152272.84;4990427;28;20236;-66
2023/07/24 08:59:36;;;;;;;8.70;6.23;;;;;;;25.32;73.39;152349.50;4989892;28;20324;-66
2023/07/24 09:02:02;;;;;;;9.07;5.90;;;;;;;24.88;71.88;152244.00;4986696;28;20244;-66
2023/07/24 09:04:30;;;;;;;9.00;5.27;;;;;;;25.47;70.46;152387.19;4988645;28;20284;-66
2023/07/24 09:06:59;;;;;;;8.23;5.63;;;;;;;24.44;70.77;152135.94;4993164;28;20230;-66
2023/07/24 09:09:30;;;;;;;11.07;6.20;;;;;;;24.68;68.48;152194.97;4986556;28;20229;-65
2023/07/24 09:11:58;;;;;;;7.83;5.80;;;;;;;24.34;70.25;152110.88;4992197;28;20320;-65
2023/07/24 09:14:26;;;;;;;9.90;5.60;;;;;;;23.92;71.29;152010.38;4986573;28;21064;-65
2023/07/24 09:17:09;;;;;;;12.27;6.00;;;;;;;23.73;76.35;151965.19;4990611;28;20228;-66
2023/07/24 09:19:36;;;;;;;6.73;4.93;;;;;;;23.02;77.81;151792.00;4988340;28;20229;-66
2023/07/24 09:22:11;;;;;;;9.53;5.70;;;;;;;22.64;79.35;151699.16;4992014;28;20769;-66
2023/07/24 09:24:37;;;;;;;8.50;5.70;;;;;;;22.69;78.53;151711.69;4988980;28;20694;-66
2023/07/24 09:27:06;;;;;;;8.80;5.87;;;;;;;22.29;80.99;151613.78;4993903;28;20217;-65
2023/07/24 09:29:34;;;;;;;9.53;5.87;;;;;;;21.88;83.62;151516.00;4991031;28;20226;-66
2023/07/24 09:32:01;;;;;;;10.00;5.93;;;;;;;22.01;84.68;151547.34;4991415;28;20230;-65
2023/07/24 09:34:29;;;;;;;10.93;5.90;;;;;;;21.90;82.49;151521.03;4989744;28;20854;-65
2023/07/24 09:36:55;;;;;;;11.50;6.00;;;;;;;21.72;84.74;151477.16;4991677;28;20241;-65
2023/07/24 09:39:25;;;;;;;10.93;6.73;;;;;;;21.35;86.46;151388.06;4991602;28;20621;-65
2023/07/24 09:41:54;;;;;;;9.30;6.30;;;;;;;21.32;84.41;151379.31;4988926;28;20237;-66
2023/07/24 09:44:21;;;;;;;9.47;6.30;;;;;;;21.29;85.47;151373.03;4989400;28;20236;-65
2023/07/24 09:47:13;;;;;;;8.03;5.70;;;;;;;21.24;87.91;151361.78;4988367;28;20639;-65
2023/07/24 09:49:40;;;;;;;9.97;6.23;;;;;;;21.08;88.45;151322.94;4987735;28;20227;-66
2023/07/24 09:52:10;;;;;;;9.07;6.37;;;;;;;20.98;89.93;151296.59;4990940;28;20230;-66
2023/07/24 09:54:45;;;;;;;10.33;6.23;;;;;;;20.86;90.35;151267.78;4986212;28;20694;-66
2023/07/24 09:57:14;;;;;;;10.30;6.80;;;;;;;20.73;90.70;151237.66;4990878;28;20472;-65
2023/07/24 09:59:41;;;;;;;9.07;5.70;;;;;;;20.67;88.82;151222.63;4987995;28;20801;-65
2023/07/24 10:02:12;;;;;;;7.53;5.23;;;;;;;20.55;90.76;151192.53;4988315;28;20607;-66
2023/07/24 10:04:40;;;;;;;10.63;6.67;;;;;;;20.43;91.30;151164.97;4986894;28;20259;-66
2023/07/24 10:07:09;;;;;;;11.23;6.00;;;;;;;20.33;91.22;151141.19;4990904;28;20353;-66
2023/07/24 10:09:37;;;;;;;9.77;6.77;;;;;;;20.20;94.53;151108.63;4987395;28;20240;-66
2023/07/24 10:12:05;;;;;;;15.27;7.07;;;;;;;19.95;96.61;151048.47;4992244;28;20263;-66
2023/07/24 10:14:31;;;;;;;10.87;6.33;;;;;;;19.74;97.15;150997.09;4987125;28;20605;-66
2023/07/24 10:16:58;;;;;;;11.87;6.50;;;;;;;19.77;96.42;151004.63;4991717;28;21066;-65
2023/07/24 10:19:25;;;;;;;7.80;5.87;;;;;;;19.73;98.14;150994.59;4990074;28;20229;-65
2023/07/24 10:21:54;;;;;;;10.73;6.33;;;;;;;19.71;99.18;150989.59;4991673;28;20240;-66
2023/07/24 10:24:30;;;;;;;11.13;6.53;;;;;;;19.59;100.00;150960.81;4991118;28;20285;-65
2023/07/24 10:26:57;;;;;;;8.53;6.10;;;;;;;19.54;100.00;150949.50;4986709;28;20280;-65
2023/07/24 10:29:24;;;;;;;9.40;6.20;;;;;;;19.55;99.92;150952.00;4982251;28;20238;-66
2023/07/24 10:31:55;;;;;;;12.37;7.03;;;;;;;19.44;100.00;150924.47;4987888;28;20222;-65
2023/07/24 10:34:21;;;;;;;12.20;7.10;;;;;;;19.52;100.00;150943.28;4990987;28;20314;-67
2023/07/24 10:37:03;;;;;;;10.97;6.67;;;;;;;19.42;100.00;150919.44;4988133;28;20291;-65
2023/07/24 10:39:39;;;;;;;8.87;6.57;;;;;;;19.40;100.00;150914.44;4988319;28;20219;-65
2023/07/24 10:42:06;;;;;;;12.27;6.97;;;;;;;19.52;100.00;150943.28;4992157;28;20239;-62
2023/07/24 10:44:33;;;;;;;10.90;6.83;;;;;;;19.44;100.00;150924.47;4987112;28;20796;-65
2023/07/24 10:47:00;;;;;;;10.77;6.77;;;;;;;19.46;98.84;150929.47;4985851;28;20367;-66
2023/07/24 10:49:26;;;;;;;17.63;7.70;;;;;;;19.48;98.27;150934.47;4987113;28;20284;-66
2023/07/24 10:51:56;;;;;;;10.83;6.87;;;;;;;19.50;97.14;150938.25;4992907;28;20688;-66
2023/07/24 10:54:23;;;;;;;12.63;7.50;;;;;;;19.51;96.94;150942.00;4987320;28;20239;-66
2023/07/24 10:57:04;;;;;;;12.57;7.30;;;;;;;19.51;93.22;150942.00;4988409;28;20329;-66
2023/07/24 10:59:38;;;;;;;11.73;7.20;;;;;;;19.49;93.84;150935.75;4989372;28;20283;-66
2023/07/24 11:02:05;;;;;;;11.90;7.30;;;;;;;19.48;94.09;150934.47;4988155;28;20243;-66
2023/07/24 11:04:33;;;;;;;11.67;7.43;;;;;;;19.61;91.45;150965.75;4988201;28;20290;-66
2023/07/24 11:07:01;;;;;;;12.00;6.83;;;;;;;19.87;89.62;151028.41;4990404;28;20288;-66
2023/07/24 11:09:35;;;;;;;11.87;7.07;;;;;;;20.20;88.31;151109.84;4987986;28;20716;-66
2023/07/24 11:12:12;;;;;;;11.97;6.17;;;;;;;20.49;85.04;151180.00;4987138;28;20658;-66
2023/07/24 11:14:47;;;;;;;9.50;5.87;;;;;;;21.22;84.51;151356.75;4988607;28;20223;-66
2023/07/24 11:17:14;;;;;;;11.67;6.00;;;;;;;21.57;82.08;151439.50;4987912;28;20235;-66
2023/07/24 11:19:40;;;;;;;8.83;6.13;;;;;;;22.11;79.80;151571.19;4988115;28;20215;-66
2023/07/24 11:22:07;;;;;;;8.00;5.93;;;;;;;22.22;77.53;151597.50;4988475;28;20236;-66